Time;durP1;ratioP1;P1;durP2;ratioP2;P2;SDS_P1;SDS_P2;PMS_P1;PMS_P2;Temp;Humidity;BMP_temperature;BMP_pressure;BME280_temperature;BME280_humidity;BME280_pressure;Samples;Min_cycle;Max_cycle;Signal;HPM_P1;HPM_P2
2021/07/06 00:00:51;;;;;;;;;;;;;;;;;;;;;
2021/07/06 00:03:29;;;;;;;0.20;0.20;;;;;;;16.99;59.27;92582.31;6317294;22;20386;-90
2021/07/06 00:06:34;;;;;;;;;;;;;;;;;;;;;
2021/07/06 00:09:17;;;;;;;0.10;0.10;;;;;;;16.98;59.63;92590.59;6290588;22;20068;-93
2021/07/06 00:12:03;;;;;;;;;;;;;;;;;;;;;
2021/07/06 00:14:37;;;;;;;0.20;0.20;;;;;;;16.77;59.40;92564.88;6287981;22;20093;-93
2021/07/06 00:17:14;;;;;;;0.20;0.20;;;;;;;16.95;59.68;92583.28;6265306;22;20023;-92
2021/07/06 00:19:51;;;;;;;0.10;0.10;;;;;;;16.75;59.80;92567.09;6311943;22;20090;-93
2021/07/06 00:22:24;;;;;;;0.20;0.20;;;;;;;16.94;59.96;92597.63;6286763;22;20010;-92
2021/07/06 00:25:03;;;;;;;0.28;0.28;;;;;;;16.91;60.08;92591.09;6291564;22;20094;-92
2021/07/06 00:27:53;;;;;;;;;;;;;;;;;;;;;
2021/07/06 00:30:44;;;;;;;0.10;0.10;;;;;;;16.68;60.70;92560.75;6312334;22;20021;-92
2021/07/06 00:33:28;;;;;;;;;;;;;;;;;;;;;
2021/07/06 00:36:01;;;;;;;0.30;0.30;;;;;;;16.61;60.73;92561.25;6267376;22;20026;-93
2021/07/06 00:38:53;;;;;;;1.30;0.57;;;;;;;16.58;60.54;92553.97;6312521;22;20031;-92
2021/07/06 00:41:37;;;;;;;0.15;0.15;;;;;;;16.63;60.29;92556.44;6292378;22;20019;-94
2021/07/06 00:44:15;;;;;;;0.10;0.10;;;;;;;16.60;60.60;92549.91;6289022;22;20014;-94
2021/07/06 00:46:46;;;;;;;0.75;0.55;;;;;;;16.57;60.86;92557.69;6286726;22;20087;-93
2021/07/06 00:49:46;;;;;;;0.30;0.30;;;;;;;16.88;61.12;92602.31;6312499;22;20057;-92
2021/07/06 00:52:31;;;;;;;0.13;0.13;;;;;;;16.49;61.24;92551.38;6293687;22;20030;-92
2021/07/06 00:55:12;;;;;;;0.10;0.10;;;;;;;16.49;60.93;92556.69;6265960;22;20019;-92
2021/07/06 00:57:43;;;;;;;0.10;0.10;;;;;;;16.51;61.40;92557.13;6287156;22;20030;-91
2021/07/06 01:00:27;;;;;;;0.20;0.20;;;;;;;16.51;61.50;92551.84;6285950;22;20014;-93
2021/07/06 01:03:23;;;;;;;0.40;0.32;;;;;;;16.52;61.32;92547.31;6286808;22;20364;-92
2021/07/06 01:06:06;;;;;;;;;;;;;;;;;;;;;
2021/07/06 01:08:52;;;;;;;0.10;0.10;;;;;;;16.72;61.24;92570.34;6337946;22;20081;-92
2021/07/06 01:11:39;;;;;;;0.20;0.20;;;;;;;16.58;61.41;92540.78;6313843;22;20397;-92
2021/07/06 01:14:10;;;;;;;0.75;0.32;;;;;;;16.67;61.89;92554.69;6286913;22;20007;-93
2021/07/06 01:16:49;;;;;;;0.10;0.10;;;;;;;16.83;62.29;92578.72;6288106;22;20015;-91
2021/07/06 01:19:43;;;;;;;0.20;0.20;;;;;;;16.79;62.67;92562.72;6311728;22;20014;-92
2021/07/06 01:22:27;;;;;;;0.17;0.17;;;;;;;16.66;62.86;92539.91;6287064;22;20026;-92
2021/07/06 01:25:10;;;;;;;;;;;;;;;;;;;;;
2021/07/06 01:27:51;;;;;;;0.10;0.10;;;;;;;16.96;62.20;92571.63;6288950;22;20100;-91
2021/07/06 01:30:28;;;;;;;0.52;0.45;;;;;;;16.82;61.79;92550.75;6287697;22;20056;-93
2021/07/06 01:33:09;;;;;;;0.20;0.20;;;;;;;17.07;61.61;92578.06;6275183;22;20047;-93
2021/07/06 01:35:48;;;;;;;0.10;0.10;;;;;;;16.92;61.32;92541.63;6270725;22;20058;-93
2021/07/06 01:38:51;;;;;;;0.35;0.28;;;;;;;17.05;60.68;92551.19;6260679;22;20031;-93
2021/07/06 01:41:29;;;;;;;0.20;0.20;;;;;;;17.36;60.52;92586.97;6286479;22;20064;-92
2021/07/06 01:44:19;;;;;;;0.10;0.10;;;;;;;17.04;60.39;92523.97;6231530;22;20318;-93
2021/07/06 01:46:50;;;;;;;0.10;0.10;;;;;;;17.10;60.39;92540.38;6259875;22;20323;-94
2021/07/06 01:49:43;;;;;;;0.10;0.10;;;;;;;17.10;60.12;92539.63;6311712;22;20025;-93
2021/07/06 01:52:29;;;;;;;0.20;0.20;;;;;;;17.13;60.42;92545.03;6290343;22;20021;-93
2021/07/06 01:54:56;;;;;;;0.20;0.20;;;;;;;17.35;60.95;92573.00;6310918;22;20097;-92
2021/07/06 01:57:31;;;;;;;0.15;0.15;;;;;;;17.28;61.09;92560.28;6312335;22;20078;-93
2021/07/06 02:00:17;;;;;;;0.88;0.50;;;;;;;17.39;61.03;92570.47;6304080;22;20066;-94
2021/07/06 02:02:49;;;;;;;0.20;0.20;;;;;;;17.41;60.96;92576.22;6279311;22;20023;-93
2021/07/06 02:05:54;;;;;;;;;;;;;;;;;;;;;
2021/07/06 02:08:30;;;;;;;0.45;0.45;;;;;;;17.25;62.03;92547.72;6299004;22;20014;-91
2021/07/06 02:11:01;;;;;;;0.30;0.30;;;;;;;17.38;61.77;92561.78;6285644;22;20011;-92
2021/07/06 02:13:29;;;;;;;0.40;0.30;;;;;;;17.47;61.52;92569.59;6338833;22;20007;-94
2021/07/06 02:16:27;;;;;;;;;;;;;;;;;;;;;
2021/07/06 02:19:00;;;;;;;0.20;0.20;;;;;;;17.30;61.74;92540.69;6311688;22;20052;-91
2021/07/06 02:21:37;;;;;;;0.20;0.20;;;;;;;17.46;61.94;92562.78;6284781;22;20311;-92
2021/07/06 02:24:42;;;;;;;;;;;;;;;;;;;;;
2021/07/06 02:27:20;;;;;;;0.10;0.10;;;;;;;17.36;61.91;92552.59;6290668;22;20019;-92
2021/07/06 02:29:56;;;;;;;;;;;;;;;;;;;;;
2021/07/06 02:32:22;;;;;;;0.30;0.30;;;;;;;17.44;62.34;92570.28;6311513;22;20563;-94
2021/07/06 02:35:28;;;;;;;;;;;;;;;;;;;;;
2021/07/06 02:38:12;;;;;;;0.25;0.22;;;;;;;17.53;62.25;92594.78;6311489;22;20023;-93
2021/07/06 02:40:48;;;;;;;0.10;0.10;;;;;;;17.48;62.30;92582.53;6311000;22;20003;-94
2021/07/06 02:43:38;;;;;;;0.17;0.17;;;;;;;17.44;62.53;92583.50;6311146;22;20036;-92
2021/07/06 02:46:22;;;;;;;0.57;0.55;;;;;;;17.26;62.45;92565.13;6310837;22;20089;-94
2021/07/06 02:49:35;;;;;;;0.20;0.20;;;;;;;17.51;62.12;92596.97;6267452;22;20014;-92
2021/07/06 02:52:27;;;;;;;0.20;0.20;;;;;;;17.38;63.04;92560.97;6338612;22;20085;-94
2021/07/06 02:54:59;;;;;;;0.10;0.10;;;;;;;17.37;62.90;92562.09;6284767;22;20042;-91
2021/07/06 02:57:45;;;;;;;0.50;0.50;;;;;;;17.35;62.88;92561.63;6313101;22;20094;-93
2021/07/06 03:00:38;;;;;;;0.25;0.25;;;;;;;17.53;62.81;92592.13;6287635;22;20007;-93
2021/07/06 03:03:26;;;;;;;0.38;0.30;;;;;;;17.28;62.52;92560.28;6255593;22;20015;-94
2021/07/06 03:06:10;;;;;;;0.10;0.10;;;;;;;17.30;62.88;92559.22;6255640;22;20072;-93
2021/07/06 03:09:10;;;;;;;0.10;0.10;;;;;;;17.47;63.10;92591.56;6282290;22;20089;-93
2021/07/06 03:11:55;;;;;;;;;;;;;;;;;;;;;
2021/07/06 03:14:31;;;;;;;0.38;0.38;;;;;;;17.32;62.93;92580.81;6257909;22;20019;-94
2021/07/06 03:16:57;;;;;;;0.35;0.35;;;;;;;17.42;63.31;92594.41;6253996;22;20051;-94
2021/07/06 03:20:01;;;;;;;;;;;;;;;;;;;;;
2021/07/06 03:22:46;;;;;;;0.10;0.10;;;;;;;17.50;63.49;92623.78;6307056;22;20090;-94
2021/07/06 03:25:22;;;;;;;0.20;0.20;;;;;;;17.28;63.27;92599.97;6254521;22;20027;-93
2021/07/06 03:28:05;;;;;;;;;;;;;;;;;;;;;
2021/07/06 03:30:53;;;;;;;0.20;0.20;;;;;;;17.15;62.69;92574.56;6305573;22;20084;-94
2021/07/06 03:33:33;;;;;;;0.20;0.20;;;;;;;17.12;62.81;92566.53;6254675;22;20077;-93
2021/07/06 03:36:19;;;;;;;0.85;0.85;;;;;;;17.13;62.66;92582.03;6255581;22;20069;-92
2021/07/06 03:39:03;;;;;;;0.15;0.15;;;;;;;17.15;63.04;92579.84;6231546;22;20069;-92
2021/07/06 03:41:53;;;;;;;0.25;0.25;;;;;;;17.14;62.89;92585.47;6278911;22;20015;-92
2021/07/06 03:44:34;;;;;;;0.13;0.13;;;;;;;17.10;63.24;92581.94;6281194;22;20067;-93
2021/07/06 03:47:48;;;;;;;0.10;0.10;;;;;;;17.30;63.16;92602.31;6281678;22;20497;-92
2021/07/06 03:50:24;;;;;;;0.22;0.20;;;;;;;17.09;62.71;92578.53;6257773;22;20130;-92
2021/07/06 03:53:08;;;;;;;0.30;0.30;;;;;;;17.06;62.67;92579.91;6279467;22;20018;-92
2021/07/06 03:55:36;;;;;;;0.43;0.20;;;;;;;17.11;62.69;92589.53;6253879;22;20078;-93
2021/07/06 03:58:14;;;;;;;0.30;0.30;;;;;;;17.29;62.49;92621.91;6279639;22;20034;-92
2021/07/06 04:00:53;;;;;;;0.22;0.22;;;;;;;17.06;62.47;92592.38;6234730;22;20015;-91
2021/07/06 04:03:26;;;;;;;0.40;0.40;;;;;;;17.30;62.44;92618.19;6310019;22;20015;-92
2021/07/06 04:06:39;;;;;;;;;;;;;;;;;;;;;
2021/07/06 04:09:16;;;;;;;0.10;0.10;;;;;;;17.45;62.11;92632.66;6338494;22;20067;-78
2021/07/06 04:11:42;;;;;;;0.20;0.20;;;;;;;17.47;62.34;92633.13;6347298;22;20342;-79
2021/07/06 04:14:07;;;;;;;0.20;0.20;;;;;;;17.50;62.14;92632.47;6345684;22;20014;-80
2021/07/06 04:16:33;;;;;;;0.17;0.17;;;;;;;17.53;61.87;92629.19;6314318;22;20022;-79
2021/07/06 04:18:59;;;;;;;0.10;0.10;;;;;;;17.57;62.43;92631.97;6338829;22;20033;-78
2021/07/06 04:21:25;;;;;;;0.30;0.30;;;;;;;17.57;63.51;92635.38;6338596;22;20457;-79
2021/07/06 04:23:50;;;;;;;0.35;0.35;;;;;;;17.59;63.47;92640.34;6310240;22;20015;-78
2021/07/06 04:26:16;;;;;;;0.20;0.20;;;;;;;17.60;63.36;92633.94;6338718;22;20018;-79
2021/07/06 04:28:42;;;;;;;0.40;0.30;;;;;;;17.62;63.79;92634.41;6339235;22;20003;-78
2021/07/06 04:31:08;;;;;;;0.32;0.32;;;;;;;17.64;63.85;92640.91;6339839;22;20040;-77
2021/07/06 04:33:34;;;;;;;0.30;0.30;;;;;;;17.66;63.34;92638.72;6340435;22;20065;-78
2021/07/06 04:35:59;;;;;;;0.35;0.35;;;;;;;17.70;63.64;92646.78;6340253;22;20015;-77
2021/07/06 04:38:25;;;;;;;0.13;0.13;;;;;;;17.75;63.80;92646.56;6309503;22;20030;-75
2021/07/06 04:40:51;;;;;;;0.30;0.30;;;;;;;17.78;63.69;92647.78;6311661;22;20056;-78
2021/07/06 04:43:16;;;;;;;0.47;0.45;;;;;;;17.82;64.54;92651.38;6339961;22;20015;-79
2021/07/06 04:45:42;;;;;;;0.52;0.40;;;;;;;17.82;64.98;92644.19;6313417;22;20038;-77
2021/07/06 04:48:08;;;;;;;0.20;0.20;;;;;;;17.85;65.10;92658.66;6265017;22;20003;-83
2021/07/06 04:50:38;;;;;;;0.35;0.35;;;;;;;17.81;65.15;92647.13;6290357;22;20014;-83
2021/07/06 04:53:06;;;;;;;0.10;0.10;;;;;;;17.84;64.67;92657.88;6343810;22;20072;-81
2021/07/06 04:55:32;;;;;;;0.32;0.30;;;;;;;17.89;65.14;92660.31;6316423;22;20245;-83
2021/07/06 04:57:58;;;;;;;0.22;0.22;;;;;;;17.90;66.34;92661.13;6343891;22;20026;-83
2021/07/06 05:00:23;;;;;;;0.10;0.10;;;;;;;17.93;66.07;92660.44;6315786;22;20101;-83
2021/07/06 05:02:49;;;;;;;0.30;0.30;;;;;;;17.95;66.72;92660.91;6343598;22;20006;-81
2021/07/06 05:05:15;;;;;;;0.15;0.15;;;;;;;17.99;67.09;92661.00;6344149;22;20315;-79
2021/07/06 05:07:41;;;;;;;0.20;0.20;;;;;;;18.01;66.85;92659.59;6316148;22;20066;-82
2021/07/06 05:10:10;;;;;;;0.10;0.10;;;;;;;18.03;66.22;92660.00;6315763;22;20022;-83
2021/07/06 05:12:36;;;;;;;0.20;0.20;;;;;;;18.12;66.31;92670.53;6314711;22;20026;-82
2021/07/06 05:15:04;;;;;;;0.28;0.28;;;;;;;18.18;65.90;92661.28;6343319;22;20011;-82
2021/07/06 05:17:30;;;;;;;0.68;0.52;;;;;;;18.27;65.58;92658.53;6343344;22;20011;-81
2021/07/06 05:19:55;;;;;;;0.10;0.10;;;;;;;18.37;65.53;92657.31;6316391;22;20186;-83
2021/07/06 05:22:22;;;;;;;0.57;0.30;;;;;;;18.47;66.62;92651.59;6343089;22;20017;-82
2021/07/06 05:24:48;;;;;;;0.20;0.20;;;;;;;18.54;61.81;92656.34;6289434;22;20021;-82
2021/07/06 05:27:14;;;;;;;0.20;0.20;;;;;;;18.63;61.45;92654.34;6314878;22;20018;-80
2021/07/06 05:29:40;;;;;;;0.20;0.20;;;;;;;18.82;61.23;92657.25;6343205;22;19995;-82
2021/07/06 05:32:06;;;;;;;0.30;0.30;;;;;;;19.05;61.35;92654.91;6343151;22;20015;-81
2021/07/06 05:34:31;;;;;;;0.20;0.20;;;;;;;19.27;62.04;92661.63;6314070;22;20022;-82
2021/07/06 05:36:57;;;;;;;0.25;0.20;;;;;;;19.52;61.48;92657.00;6341916;22;20007;-83
2021/07/06 05:39:23;;;;;;;0.35;0.35;;;;;;;19.72;61.21;92652.66;6341242;22;20018;-83
2021/07/06 05:41:49;;;;;;;0.30;0.30;;;;;;;19.92;62.00;92658.06;6313315;22;20003;-83
2021/07/06 05:44:15;;;;;;;0.28;0.28;;;;;;;20.08;59.34;92650.91;6288395;22;20014;-83
2021/07/06 05:46:41;;;;;;;0.70;0.68;;;;;;;20.27;58.85;92652.91;6314018;22;20041;-83
2021/07/06 05:49:07;;;;;;;0.30;0.30;;;;;;;20.46;58.43;92660.19;6314876;22;20453;-83
2021/07/06 05:51:32;;;;;;;0.30;0.30;;;;;;;20.55;57.99;92658.13;6314267;22;20019;-83
2021/07/06 05:53:58;;;;;;;0.88;0.55;;;;;;;20.54;59.25;92656.59;6315618;22;20006;-82
2021/07/06 05:56:24;;;;;;;0.47;0.40;;;;;;;20.56;58.85;92666.91;6314120;22;20011;-82
2021/07/06 05:58:49;;;;;;;0.30;0.30;;;;;;;20.53;58.37;92659.59;6314178;22;20018;-82
2021/07/06 06:01:16;;;;;;;0.10;0.10;;;;;;;20.32;58.54;92655.31;6313971;22;20022;-83
2021/07/06 06:03:42;;;;;;;0.20;0.20;;;;;;;20.26;58.73;92661.22;6341191;22;20015;-83
2021/07/06 06:06:08;;;;;;;0.20;0.20;;;;;;;20.14;58.55;92662.84;6341947;22;20017;-82
2021/07/06 06:11:00;;;;;;;0.30;0.30;;;;;;;20.39;59.58;92660.03;6310920;22;20015;-82
2021/07/06 06:13:26;;;;;;;0.57;0.43;;;;;;;20.52;60.42;92666.81;6283714;22;20022;-82
2021/07/06 06:15:51;;;;;;;0.30;0.30;;;;;;;20.71;60.91;92666.13;6310987;22;20104;-83
2021/07/06 06:18:17;;;;;;;0.25;0.25;;;;;;;20.98;60.08;92659.16;6310558;22;20016;-82
2021/07/06 06:20:42;;;;;;;0.20;0.20;;;;;;;22.07;57.07;92662.13;6258078;22;20007;-81
2021/07/06 06:23:08;;;;;;;2.97;0.68;;;;;;;22.14;55.67;92663.00;6310480;22;20090;-83
2021/07/06 06:25:33;;;;;;;0.85;0.47;;;;;;;22.48;52.82;92651.81;6256904;22;20089;-82
2021/07/06 06:27:59;;;;;;;0.20;0.20;;;;;;;22.78;53.19;92655.31;6282723;22;20026;-84
2021/07/06 06:30:25;;;;;;;0.43;0.40;;;;;;;22.19;55.54;92649.38;6256886;22;20007;-83
2021/07/06 06:32:54;;;;;;;0.38;0.38;;;;;;;21.62;58.33;92656.34;6282869;22;20030;-82
2021/07/06 06:35:20;;;;;;;0.55;0.50;;;;;;;21.02;58.12;92664.56;6309703;22;20011;-81
2021/07/06 06:37:46;;;;;;;0.20;0.20;;;;;;;20.83;59.97;92662.63;6282231;22;20038;-82
2021/07/06 06:40:13;;;;;;;0.15;0.15;;;;;;;20.76;60.11;92662.44;6257324;22;20018;-81
2021/07/06 06:42:40;;;;;;;0.10;0.10;;;;;;;20.88;60.14;92666.91;6310231;22;20022;-83
2021/07/06 06:45:08;;;;;;;0.10;0.10;;;;;;;20.88;59.70;92667.66;6282176;22;20007;-83
2021/07/06 06:47:35;;;;;;;1.55;1.05;;;;;;;20.93;59.80;92666.63;6310454;22;20394;-84
2021/07/06 06:50:01;;;;;;;0.30;0.30;;;;;;;21.02;59.43;92661.13;6282766;22;20088;-83
2021/07/06 06:52:27;;;;;;;0.22;0.22;;;;;;;21.10;58.66;92662.84;6256884;22;20011;-83
2021/07/06 06:54:52;;;;;;;0.20;0.20;;;;;;;21.39;58.08;92659.66;6310321;22;20379;-82
2021/07/06 06:57:21;;;;;;;0.10;0.10;;;;;;;21.19;56.44;92668.72;6257041;22;20019;-84
2021/07/06 06:59:49;;;;;;;1.05;0.40;;;;;;;21.35;56.21;92674.00;6310388;22;20362;-83
2021/07/06 07:02:18;;;;;;;0.30;0.30;;;;;;;21.19;57.29;92668.72;6310954;22;20031;-82
2021/07/06 07:04:44;;;;;;;0.10;0.10;;;;;;;21.18;57.73;92662.63;6310217;22;20090;-81
2021/07/06 07:07:11;;;;;;;0.30;0.30;;;;;;;21.35;56.74;92658.03;6309650;22;20335;-84
2021/07/06 07:09:37;;;;;;;0.30;0.30;;;;;;;21.21;56.79;92658.50;6322732;22;20038;-82
2021/07/06 07:12:03;;;;;;;0.50;0.50;;;;;;;21.32;56.34;92656.84;6341954;22;20447;-82
2021/07/06 07:14:28;;;;;;;0.20;0.20;;;;;;;21.57;55.52;92656.59;6341414;22;20014;-84
2021/07/06 07:16:54;;;;;;;0.20;0.20;;;;;;;21.97;55.47;92647.47;6341818;22;20406;-83
2021/07/06 07:19:19;;;;;;;1.00;0.82;;;;;;;22.01;55.02;92656.28;6288171;22;20022;-82
2021/07/06 07:21:45;;;;;;;0.22;0.22;;;;;;;22.07;55.98;92649.56;6340697;22;20015;-84
2021/07/06 07:24:11;;;;;;;0.10;0.10;;;;;;;21.95;55.90;92652.38;6314007;22;20019;-84
2021/07/06 07:26:36;;;;;;;0.10;0.10;;;;;;;21.59;58.39;92641.81;6288276;22;20006;-82
2021/07/06 07:29:05;;;;;;;0.80;0.52;;;;;;;21.61;60.56;92649.44;6341170;22;20035;-84
2021/07/06 07:31:31;;;;;;;0.10;0.10;;;;;;;21.25;60.99;92646.03;6313878;22;20007;-82
2021/07/06 07:33:56;;;;;;;0.40;0.40;;;;;;;21.28;58.73;92645.34;6342262;22;20019;-82
2021/07/06 07:36:22;;;;;;;0.20;0.20;;;;;;;21.54;53.34;92646.66;6342976;22;20022;-84
2021/07/06 07:38:48;;;;;;;0.20;0.20;;;;;;;21.76;54.74;92653.16;6314998;22;20383;-83
2021/07/06 07:41:13;;;;;;;0.88;0.50;;;;;;;21.98;57.58;92643.69;6342316;22;20153;-82
2021/07/06 07:43:39;;;;;;;0.32;0.32;;;;;;;21.94;58.08;92653.50;6342092;22;20073;-84
2021/07/06 07:46:05;;;;;;;0.20;0.20;;;;;;;21.64;57.75;92651.44;6288211;22;20014;-84
2021/07/06 07:48:31;;;;;;;0.22;0.22;;;;;;;21.34;60.16;92659.13;6340968;22;20392;-84
2021/07/06 07:50:57;;;;;;;0.20;0.20;;;;;;;21.73;58.44;92654.66;6341446;22;20014;-83
2021/07/06 07:53:22;;;;;;;0.30;0.30;;;;;;;21.68;59.22;92652.25;6342391;22;20085;-83
2021/07/06 07:55:51;;;;;;;0.32;0.32;;;;;;;21.64;59.49;92651.44;6341829;22;20030;-84
2021/07/06 07:58:16;;;;;;;0.20;0.20;;;;;;;21.61;59.45;92654.78;6314335;22;20011;-83
2021/07/06 08:00:42;;;;;;;0.75;0.65;;;;;;;21.70;58.95;92655.34;6313517;22;20461;-82
2021/07/06 08:03:08;;;;;;;0.20;0.20;;;;;;;21.88;58.20;92645.00;6314135;22;20011;-84
2021/07/06 08:05:34;;;;;;;0.95;0.47;;;;;;;22.05;58.15;92630.47;6290386;22;20022;-84
2021/07/06 08:07:59;;;;;;;1.08;0.57;;;;;;;22.34;55.52;92637.09;6343482;22;20067;-83
2021/07/06 08:10:25;;;;;;;0.28;0.28;;;;;;;22.61;53.18;92637.91;6343269;22;20019;-84
2021/07/06 08:12:51;;;;;;;0.40;0.40;;;;;;;23.01;52.55;92644.66;6344041;22;20516;-84
2021/07/06 08:15:16;;;;;;;0.40;0.40;;;;;;;23.18;55.38;92645.25;6316744;22;20049;-82
2021/07/06 08:17:43;;;;;;;0.20;0.20;;;;;;;22.98;56.19;92636.56;6343521;22;20097;-84
2021/07/06 08:20:09;;;;;;;0.45;0.45;;;;;;;22.57;56.20;92631.75;6316296;22;20013;-83
2021/07/06 08:22:35;;;;;;;0.43;0.43;;;;;;;22.39;57.33;92636.81;6343430;22;20072;-82
2021/07/06 08:25:00;;;;;;;0.38;0.38;;;;;;;22.73;56.77;92633.53;6344154;22;20006;-84
2021/07/06 08:27:26;;;;;;;0.20;0.20;;;;;;;22.63;55.35;92634.91;6343668;22;20046;-84
2021/07/06 08:29:52;;;;;;;0.88;0.50;;;;;;;22.44;56.76;92633.06;6343426;22;20506;-83
2021/07/06 08:32:17;;;;;;;0.20;0.20;;;;;;;22.53;58.46;92640.81;6315274;22;20019;-82
2021/07/06 08:34:43;;;;;;;1.13;1.00;;;;;;;22.65;57.63;92637.97;6315284;22;20066;-84
2021/07/06 08:37:09;;;;;;;0.20;0.20;;;;;;;22.64;54.73;92631.09;6343216;22;20078;-83
2021/07/06 08:39:35;;;;;;;0.30;0.30;;;;;;;22.60;55.94;92628.38;6343467;22;20027;-84
2021/07/06 08:42:01;;;;;;;0.43;0.43;;;;;;;22.61;54.06;92627.25;6315793;22;20111;-81
2021/07/06 08:44:27;;;;;;;0.20;0.20;;;;;;;22.49;55.53;92624.75;6315894;22;20019;-83
2021/07/06 08:46:55;;;;;;;0.50;0.47;;;;;;;;;;6343939;22;20419;-82
2021/07/06 08:49:22;;;;;;;0.95;0.65;;;;;;;22.61;55.04;92629.91;6343683;22;20014;-82
2021/07/06 08:51:50;;;;;;;0.20;0.20;;;;;;;22.29;57.11;92621.41;6290026;22;20018;-83
2021/07/06 08:54:17;;;;;;;0.80;0.60;;;;;;;22.48;56.17;92623.22;6342498;22;20053;-84
2021/07/06 08:56:43;;;;;;;0.93;0.57;;;;;;;22.68;56.49;92633.84;6342663;22;20006;-83
2021/07/06 08:59:09;;;;;;;0.32;0.32;;;;;;;22.49;57.34;92629.31;6315678;22;20450;-84
2021/07/06 09:01:35;;;;;;;0.22;0.22;;;;;;;22.26;57.00;92626.69;6315585;22;20015;-82
2021/07/06 09:04:05;;;;;;;0.43;0.43;;;;;;;22.81;56.84;92619.16;6343560;22;20430;-84
2021/07/06 09:06:51;;;;;;;0.45;0.45;;;;;;;22.90;56.39;92622.34;6316047;22;20040;-84
2021/07/06 09:09:18;;;;;;;0.47;0.43;;;;;;;;;;6316123;22;20083;-83
2021/07/06 09:11:48;;;;;;;0.63;0.63;;;;;;;23.46;53.93;92628.81;6344087;22;20082;-83
2021/07/06 09:14:15;;;;;;;0.30;0.30;;;;;;;23.44;52.06;92623.84;6344200;22;20010;-82
2021/07/06 09:16:41;;;;;;;0.35;0.35;;;;;;;23.68;50.15;92624.50;6343263;22;20015;-82
2021/07/06 09:19:33;;;;;;;0.68;0.45;;;;;;;23.75;51.56;92618.50;6316638;22;20042;-84
2021/07/06 09:22:33;;;;;;;0.95;0.63;;;;;;;23.82;52.78;92615.91;6336831;22;20022;-84
2021/07/06 09:25:08;;;;;;;0.47;0.47;;;;;;;24.21;48.97;92621.66;6234157;22;20018;-84
2021/07/06 09:27:41;;;;;;;0.20;0.20;;;;;;;23.51;52.98;92617.03;6344311;22;20092;-83
2021/07/06 09:30:19;;;;;;;2.10;0.82;;;;;;;23.82;53.67;92616.69;6343939;22;20037;-84
2021/07/06 09:33:11;;;;;;;0.30;0.30;;;;;;;23.21;53.77;92625.84;6344651;22;20011;-82
2021/07/06 09:35:36;;;;;;;0.28;0.28;;;;;;;23.11;53.33;92623.81;6335701;22;20026;-82
2021/07/06 09:38:04;;;;;;;0.40;0.40;;;;;;;23.73;52.27;92624.16;6343547;22;20010;-82
2021/07/06 09:40:35;;;;;;;0.50;0.45;;;;;;;23.57;53.80;92636.97;6315882;22;20006;-82
2021/07/06 09:43:23;;;;;;;0.20;0.20;;;;;;;23.51;52.74;92625.84;6343728;22;20078;-84
2021/07/06 09:45:54;;;;;;;0.20;0.20;;;;;;;23.07;54.62;92632.50;6344235;22;20030;-82
2021/07/06 09:48:21;;;;;;;0.32;0.32;;;;;;;23.30;52.97;92641.59;6290248;22;20045;-83
2021/07/06 09:50:46;;;;;;;1.00;0.90;;;;;;;23.28;53.70;92641.94;6343788;22;20015;-82
2021/07/06 09:53:30;;;;;;;0.45;0.45;;;;;;;23.13;52.98;92641.00;6315583;22;20226;-80
2021/07/06 09:55:56;;;;;;;0.70;0.55;;;;;;;23.24;51.60;92646.50;6343516;22;20342;-84
2021/07/06 09:58:22;;;;;;;0.40;0.40;;;;;;;23.66;50.58;92635.56;6316796;22;20021;-84
2021/07/06 10:00:52;;;;;;;0.80;0.80;;;;;;;23.76;50.37;92649.44;6316781;22;20015;-84
2021/07/06 10:03:18;;;;;;;0.75;0.63;;;;;;;23.60;52.81;92654.97;6342948;22;20015;-81
2021/07/06 10:05:45;;;;;;;0.95;0.75;;;;;;;23.93;49.29;92653.44;6312188;22;20106;-80
2021/07/06 10:08:12;;;;;;;0.93;0.70;;;;;;;24.41;50.35;92648.19;6313543;22;20014;-80
2021/07/06 10:10:38;;;;;;;0.32;0.32;;;;;;;24.79;48.10;92640.88;6340516;22;20015;-80
2021/07/06 10:13:04;;;;;;;0.85;0.55;;;;;;;25.30;47.77;92630.13;6313709;22;20010;-80
2021/07/06 10:15:31;;;;;;;0.93;0.82;;;;;;;25.17;49.22;92625.44;6312670;22;20420;-80
2021/07/06 10:17:57;;;;;;;0.20;0.20;;;;;;;24.44;51.89;92629.50;6313095;22;20019;-79
2021/07/06 10:20:28;;;;;;;0.40;0.40;;;;;;;24.57;49.01;92627.34;6339784;22;20018;-78
2021/07/06 10:22:59;;;;;;;0.45;0.45;;;;;;;24.49;47.97;92618.47;6340761;22;20032;-80
2021/07/06 10:25:36;;;;;;;0.52;0.47;;;;;;;24.20;49.54;92622.00;6340704;22;20030;-80
2021/07/06 10:28:05;;;;;;;0.35;0.35;;;;;;;24.21;48.66;92637.69;6339943;22;20014;-79
2021/07/06 10:30:40;;;;;;;0.15;0.15;;;;;;;24.57;46.30;92630.03;6338889;22;20063;-79
2021/07/06 10:33:12;;;;;;;0.20;0.20;;;;;;;24.52;46.77;92638.41;6340858;22;20006;-80
2021/07/06 10:35:41;;;;;;;0.38;0.38;;;;;;;24.33;45.68;92639.34;6340179;22;20017;-80
2021/07/06 10:38:29;;;;;;;0.75;0.65;;;;;;;24.65;45.26;92641.53;6312374;22;20021;-78
2021/07/06 10:40:58;;;;;;;0.57;0.50;;;;;;;25.19;46.56;92640.03;6339714;22;20014;-81
2021/07/06 10:43:32;;;;;;;0.40;0.40;;;;;;;23.84;46.43;92640.38;6339419;22;20021;-79
2021/07/06 10:46:16;;;;;;;0.50;0.50;;;;;;;24.33;44.16;92642.00;6286717;22;20088;-77
2021/07/06 10:48:47;;;;;;;0.20;0.20;;;;;;;24.43;47.35;92645.91;6312372;22;20015;-78
2021/07/06 10:51:34;;;;;;;0.70;0.60;;;;;;;24.33;46.52;92643.91;6339896;22;20002;-78
2021/07/06 10:54:08;;;;;;;0.40;0.40;;;;;;;24.90;44.54;92636.38;6340510;22;20060;-79
2021/07/06 10:56:43;;;;;;;0.95;0.80;;;;;;;25.24;43.62;92630.88;6339809;22;20017;-80
2021/07/06 10:59:20;;;;;;;0.38;0.38;;;;;;;25.87;42.79;92637.72;6311326;22;20014;-80
2021/07/06 11:01:49;;;;;;;0.40;0.28;;;;;;;26.11;43.06;92643.50;6338134;22;20375;-80
2021/07/06 11:04:47;;;;;;;0.45;0.43;;;;;;;25.03;44.10;92642.97;6339677;22;20457;-78
2021/07/06 11:07:14;;;;;;;0.65;0.43;;;;;;;25.32;43.59;92643.16;6324756;22;20019;-79
2021/07/06 11:09:40;;;;;;;0.30;0.30;;;;;;;25.12;43.65;92640.72;6338768;22;20026;-79
2021/07/06 11:12:19;;;;;;;2.72;0.82;;;;;;;25.32;45.39;92643.94;6339469;22;20060;-83
2021/07/06 11:14:55;;;;;;;0.50;0.45;;;;;;;25.92;41.56;92640.00;6312220;22;20006;-79
2021/07/06 11:17:33;;;;;;;0.50;0.50;;;;;;;25.38;43.98;92641.69;6339039;22;20462;-79
2021/07/06 11:20:08;;;;;;;0.32;0.32;;;;;;;25.38;44.38;92641.69;6312134;22;20081;-79
2021/07/06 11:22:55;;;;;;;0.85;0.85;;;;;;;25.52;42.99;92636.38;6338552;22;20013;-79
2021/07/06 11:25:24;;;;;;;0.40;0.40;;;;;;;24.96;45.63;92642.91;6339361;22;20430;-79
2021/07/06 11:27:58;;;;;;;0.70;0.32;;;;;;;24.96;44.98;92640.25;6310946;22;20428;-79
2021/07/06 11:30:24;;;;;;;0.88;0.73;;;;;;;24.94;43.03;92635.25;6339697;22;20041;-79
2021/07/06 11:33:13;;;;;;;0.30;0.30;;;;;;;25.36;42.91;92633.25;6312186;22;20006;-79
2021/07/06 11:35:45;;;;;;;1.33;0.70;;;;;;;25.48;42.38;92624.88;6339489;22;20315;-80
2021/07/06 11:38:12;;;;;;;0.50;0.50;;;;;;;25.46;43.62;92624.47;6340335;22;20007;-80
2021/07/06 11:40:40;;;;;;;0.30;0.30;;;;;;;25.52;42.50;92622.97;6341692;22;20003;-79
2021/07/06 11:43:06;;;;;;;0.75;0.57;;;;;;;25.84;43.83;92624.25;6288589;22;20453;-79
2021/07/06 11:45:32;;;;;;;0.40;0.40;;;;;;;25.48;43.93;92618.75;6314606;22;20389;-80
2021/07/06 11:48:15;;;;;;;0.80;0.60;;;;;;;25.01;45.93;92621.16;6342136;22;20019;-79
2021/07/06 11:50:44;;;;;;;0.30;0.30;;;;;;;24.70;47.51;92619.78;6341618;22;20003;-79
2021/07/06 11:53:11;;;;;;;0.20;0.20;;;;;;;25.06;47.29;92618.13;6341934;22;20014;-79
2021/07/06 11:55:38;;;;;;;1.05;0.45;;;;;;;24.96;47.61;92615.38;6341318;22;20022;-78
2021/07/06 11:58:06;;;;;;;3.72;0.50;;;;;;;25.09;47.38;92609.34;6341056;22;20003;-79
2021/07/06 12:00:34;;;;;;;0.63;0.60;;;;;;;24.54;47.82;92606.66;6313926;22;20019;-80
2021/07/06 12:03:19;;;;;;;0.22;0.22;;;;;;;25.42;47.37;92606.84;6313683;22;20342;-79
2021/07/06 12:05:46;;;;;;;0.20;0.20;;;;;;;25.72;46.50;92602.00;6341115;22;20010;-80
2021/07/06 12:08:20;;;;;;;0.60;0.60;;;;;;;25.75;44.89;92603.16;6313373;22;20012;-80
2021/07/06 12:10:58;;;;;;;0.38;0.38;;;;;;;25.64;44.75;92607.72;6340381;22;20014;-79
2021/07/06 12:13:25;;;;;;;2.70;0.63;;;;;;;25.58;43.49;92601.16;6340961;22;20007;-80
2021/07/06 12:15:54;;;;;;;0.50;0.50;;;;;;;25.67;44.34;92598.91;6340472;22;20034;-80
2021/07/06 12:18:19;;;;;;;0.32;0.32;;;;;;;25.93;44.08;92595.94;6340949;22;20010;-79
2021/07/06 12:20:58;;;;;;;0.40;0.40;;;;;;;25.92;43.99;92605.16;6313224;22;20018;-79
2021/07/06 12:23:25;;;;;;;0.68;0.50;;;;;;;25.55;46.75;92600.00;6340740;22;20398;-79
2021/07/06 12:25:53;;;;;;;0.98;0.60;;;;;;;25.95;43.01;92588.28;6340769;22;20045;-79